Time;durP1;ratioP1;P1;durP2;ratioP2;P2;SDS_P1;SDS_P2;PMS_P1;PMS_P2;Temp;Humidity;BMP_temperature;BMP_pressure;BME280_temperature;BME280_humidity;BME280_pressure;Samples;Min_cycle;Max_cycle;Signal;HPM_P1;HPM_P2
2022/08/18 00:00:32;;;;;;;9.63;7.78;;;21.00;99.90;;;;;;5051146;28;20045;-75
2022/08/18 00:03:02;;;;;;;12.27;8.73;;;21.00;99.90;;;;;;5049609;28;20021;-75
2022/08/18 00:05:28;;;;;;;12.63;8.35;;;21.00;99.90;;;;;;5047584;28;20048;-76
2022/08/18 00:07:53;;;;;;;12.90;8.10;;;20.90;99.90;;;;;;5049018;28;20033;-76
2022/08/18 00:10:19;;;;;;;13.03;8.13;;;20.90;99.90;;;;;;5051252;28;20120;-76
2022/08/18 00:12:44;;;;;;;10.33;7.77;;;20.90;99.90;;;;;;5046807;28;20036;-76
2022/08/18 00:15:13;;;;;;;13.40;8.33;;;20.90;99.90;;;;;;5030855;28;20042;-76
2022/08/18 00:17:39;;;;;;;13.80;8.05;;;20.90;99.90;;;;;;5035205;28;20029;-76
2022/08/18 00:20:07;;;;;;;11.63;7.27;;;20.90;99.90;;;;;;5051093;28;20037;-76
2022/08/18 00:22:34;;;;;;;12.80;7.95;;;20.80;99.90;;;;;;5051074;28;20028;-75
2022/08/18 00:24:59;;;;;;;10.20;7.60;;;20.80;99.90;;;;;;5049476;28;20548;-76
2022/08/18 00:27:28;;;;;;;10.23;7.50;;;20.80;99.90;;;;;;5048699;28;20112;-76
2022/08/18 00:29:56;;;;;;;9.20;6.95;;;20.70;99.90;;;;;;5050640;28;20063;-76
2022/08/18 00:32:26;;;;;;;10.40;7.85;;;20.70;99.90;;;;;;5048611;28;20032;-76
2022/08/18 00:34:53;;;;;;;9.45;7.93;;;20.70;99.90;;;;;;5049056;28;20028;-76
2022/08/18 00:37:20;;;;;;;8.98;6.97;;;20.70;99.90;;;;;;5050455;28;20049;-76
2022/08/18 00:39:45;;;;;;;11.18;8.48;;;20.60;99.90;;;;;;5048676;28;20049;-76
2022/08/18 00:42:23;;;;;;;11.70;7.53;;;20.60;99.90;;;;;;5030233;28;20037;-76
2022/08/18 00:44:49;;;;;;;8.68;7.15;;;20.50;99.90;;;;;;5030532;28;20045;-76
2022/08/18 00:47:15;;;;;;;11.13;7.07;;;20.50;99.90;;;;;;5033281;28;20021;-76
2022/08/18 00:49:42;;;;;;;8.70;7.53;;;20.50;99.90;;;;;;5046926;28;20040;-75
2022/08/18 00:52:12;;;;;;;9.95;7.55;;;20.50;99.90;;;;;;5050083;28;20021;-76
2022/08/18 00:54:40;;;;;;;9.48;6.80;;;20.40;99.90;;;;;;5050501;28;20032;-74
2022/08/18 00:57:07;;;;;;;14.95;7.78;;;20.40;99.90;;;;;;5035112;28;20029;-75
2022/08/18 00:59:45;;;;;;;9.80;7.47;;;20.30;99.90;;;;;;5029162;28;20616;-75
2022/08/18 01:02:20;;;;;;;9.90;7.60;;;20.70;99.90;;;;;;5045043;28;20037;-75
2022/08/18 01:04:58;;;;;;;9.90;6.82;;;20.30;99.90;;;;;;5028692;28;20064;-74
2022/08/18 01:07:33;;;;;;;9.07;6.90;;;20.30;99.90;;;;;;5030180;28;20128;-75
2022/08/18 01:09:59;;;;;;;8.93;6.75;;;20.20;99.90;;;;;;5038112;28;20548;-75
2022/08/18 01:12:26;;;;;;;11.50;7.63;;;20.20;99.90;;;;;;5049989;28;20025;-74
2022/08/18 01:14:53;;;;;;;10.80;7.18;;;20.20;99.90;;;;;;5048766;28;20034;-75
2022/08/18 01:23:20;;;;;;;11.77;7.47;;;20.10;99.90;;;;;;5056674;28;20033;-76
2022/08/18 01:26:00;;;;;;;10.30;6.65;;;20.10;99.90;;;;;;5048833;28;20033;-76
2022/08/18 01:28:32;;;;;;;9.45;7.00;;;20.10;99.90;;;;;;5028889;28;20026;-75
2022/08/18 01:30:59;;;;;;;9.32;6.72;;;20.00;99.90;;;;;;5029858;28;20060;-76
2022/08/18 01:33:31;;;;;;;10.38;6.82;;;20.00;99.90;;;;;;5037848;28;20084;-76
2022/08/18 01:36:02;;;;;;;11.82;6.85;;;20.00;99.90;;;;;;5050168;28;20025;-75
2022/08/18 01:38:30;;;;;;;11.55;7.03;;;20.00;99.90;;;;;;5049811;28;20020;-74
2022/08/18 01:40:57;;;;;;;11.65;6.93;;;20.00;99.90;;;;;;5049453;28;20099;-75
2022/08/18 01:43:23;;;;;;;13.48;7.40;;;19.90;99.90;;;;;;5029892;28;20099;-75
2022/08/18 01:45:49;;;;;;;11.38;7.43;;;19.90;99.90;;;;;;5029641;28;20029;-75
2022/08/18 01:48:15;;;;;;;10.83;7.13;;;19.90;99.90;;;;;;5031632;28;20120;-75
2022/08/18 01:50:43;;;;;;;8.75;6.88;;;19.80;99.90;;;;;;5046291;28;20057;-76
2022/08/18 01:53:10;;;;;;;11.88;7.05;;;19.80;99.90;;;;;;5048288;28;20029;-75
2022/08/18 01:55:37;;;;;;;9.85;7.63;;;19.80;99.90;;;;;;5048431;28;20029;-75
2022/08/18 01:58:05;;;;;;;11.27;7.40;;;19.80;99.90;;;;;;5048985;28;20018;-75
2022/08/18 02:00:31;;;;;;;10.73;6.85;;;19.80;99.90;;;;;;5048534;28;20124;-74
2022/08/18 02:02:58;;;;;;;11.87;8.00;;;19.70;99.90;;;;;;5047306;28;20461;-75
2022/08/18 02:05:34;;;;;;;12.55;7.32;;;19.70;99.90;;;;;;5028497;28;20511;-75
2022/08/18 02:07:59;;;;;;;10.40;7.68;;;19.70;99.90;;;;;;5028225;28;20095;-75
2022/08/18 02:10:26;;;;;;;15.53;7.50;;;19.70;99.90;;;;;;5029491;28;20025;-75
2022/08/18 02:12:52;;;;;;;9.35;6.93;;;19.70;99.90;;;;;;5039969;28;20029;-75
2022/08/18 02:15:17;;;;;;;12.60;7.83;;;19.70;99.90;;;;;;5049378;28;20538;-75
2022/08/18 02:17:45;;;;;;;10.60;7.20;;;19.60;99.90;;;;;;5051406;28;20036;-75
2022/08/18 02:20:14;;;;;;;11.00;7.68;;;19.60;99.90;;;;;;5035682;28;20026;-75
2022/08/18 02:22:41;;;;;;;9.65;6.78;;;19.60;99.90;;;;;;5034226;28;20116;-75
2022/08/18 02:25:07;;;;;;;10.95;7.28;;;19.50;99.90;;;;;;5033003;28;20393;-75
2022/08/18 02:27:33;;;;;;;9.98;7.95;;;19.50;99.90;;;;;;5038655;28;20043;-74
2022/08/18 02:30:00;;;;;;;11.10;7.43;;;19.50;99.90;;;;;;5051196;28;20119;-75
2022/08/18 02:32:26;;;;;;;10.82;7.10;;;19.40;99.90;;;;;;5053074;28;20425;-75
2022/08/18 02:34:53;;;;;;;13.50;8.10;;;19.40;99.90;;;;;;5039546;28;20088;-75
2022/08/18 02:37:20;;;;;;;16.40;7.97;;;19.40;99.90;;;;;;5032876;28;20113;-75
2022/08/18 02:39:45;;;;;;;12.80;7.72;;;19.40;99.90;;;;;;5032588;28;20512;-75
2022/08/18 02:42:13;;;;;;;9.60;6.97;;;19.40;99.90;;;;;;5032253;28;20083;-75
2022/08/18 02:44:39;;;;;;;11.88;7.50;;;19.40;99.90;;;;;;5051297;28;20118;-75
2022/08/18 02:47:05;;;;;;;10.95;7.53;;;19.40;99.90;;;;;;5053113;28;20036;-75
2022/08/18 02:49:31;;;;;;;11.87;7.40;;;19.30;99.90;;;;;;5050718;28;20312;-75
2022/08/18 02:51:57;;;;;;;9.93;7.75;;;19.30;99.90;;;;;;5049371;28;20060;-75
2022/08/18 02:54:24;;;;;;;11.27;7.20;;;19.40;99.90;;;;;;5052744;28;20041;-75
2022/08/18 02:56:51;;;;;;;10.45;7.50;;;19.30;99.90;;;;;;5052431;28;20029;-74
2022/08/18 02:59:25;;;;;;;10.30;6.97;;;19.30;99.90;;;;;;5034642;28;20040;-75
2022/08/18 03:01:53;;;;;;;11.15;7.55;;;19.30;99.90;;;;;;5032115;28;20129;-75
2022/08/18 03:04:27;;;;;;;10.50;7.43;;;19.30;99.90;;;;;;5033093;28;20791;-75
2022/08/18 03:06:55;;;;;;;11.93;7.70;;;19.20;99.90;;;;;;5051857;28;20449;-75
2022/08/18 03:09:20;;;;;;;11.05;7.47;;;19.20;99.90;;;;;;5052071;28;20075;-74
2022/08/18 03:11:47;;;;;;;10.50;7.63;;;19.20;99.90;;;;;;5052108;28;20060;-75
2022/08/18 03:14:13;;;;;;;10.75;7.28;;;19.20;99.90;;;;;;5038294;28;20037;-74
2022/08/18 03:16:40;;;;;;;;;;;19.20;99.90;;;;;;5031224;28;20046;-75
2022/08/18 03:19:06;;;;;;;8.98;7.65;;;19.20;99.90;;;;;;5031817;28;19923;-74
2022/08/18 03:21:35;;;;;;;11.17;7.40;;;19.10;99.90;;;;;;5034814;28;20041;-75
2022/08/18 03:24:02;;;;;;;12.80;7.55;;;19.10;99.90;;;;;;5050594;28;20196;-75
2022/08/18 03:26:29;;;;;;;12.60;7.90;;;19.10;99.90;;;;;;5050356;28;20037;-75
2022/08/18 03:28:54;;;;;;;10.18;7.63;;;19.10;99.90;;;;;;5040667;28;20171;-75
2022/08/18 03:31:23;;;;;;;14.73;7.73;;;19.10;99.90;;;;;;5030468;28;20124;-75
2022/08/18 03:33:50;;;;;;;10.88;8.13;;;19.00;99.90;;;;;;5030521;28;20031;-74
2022/08/18 03:36:22;;;;;;;11.25;7.60;;;19.00;99.90;;;;;;5032682;28;20502;-75
2022/08/18 03:38:48;;;;;;;10.27;7.68;;;19.00;99.90;;;;;;5031241;28;20469;-75
2022/08/18 03:41:17;;;;;;;9.80;8.55;;;19.10;99.90;;;;;;5031346;28;20044;-75
2022/08/18 03:43:42;;;;;;;11.68;8.10;;;19.10;99.90;;;;;;5036497;28;20476;-75
2022/08/18 03:46:12;;;;;;;14.47;8.30;;;19.00;99.90;;;;;;5049970;28;20032;-75
2022/08/18 03:48:40;;;;;;;13.15;7.70;;;19.10;99.90;;;;;;5051305;28;20024;-75
2022/08/18 03:51:18;;;;;;;10.95;7.78;;;19.10;99.90;;;;;;5038128;28;20038;-75
2022/08/18 03:53:47;;;;;;;13.55;8.10;;;19.10;99.90;;;;;;5031550;28;20385;-75
2022/08/18 03:56:15;;;;;;;14.43;7.68;;;19.10;99.90;;;;;;5029855;28;20037;-75
2022/08/18 03:58:44;;;;;;;10.30;7.50;;;19.10;99.90;;;;;;5033822;28;20032;-75
2022/08/18 04:01:14;;;;;;;11.43;7.55;;;19.20;99.90;;;;;;5051092;28;20082;-75
2022/08/18 04:03:43;;;;;;;14.93;7.75;;;19.20;99.90;;;;;;5050890;28;20523;-76
2022/08/18 04:06:21;;;;;;;11.68;8.15;;;19.10;99.90;;;;;;5049291;28;20033;-75
2022/08/18 04:08:49;;;;;;;13.43;8.73;;;19.20;99.90;;;;;;5051114;28;20492;-75
2022/08/18 04:11:15;;;;;;;12.65;8.00;;;19.20;99.90;;;;;;5050743;28;20032;-76
2022/08/18 04:13:41;;;;;;;9.60;7.60;;;19.30;99.90;;;;;;5049797;28;20063;-75
2022/08/18 04:16:07;;;;;;;11.17;8.33;;;19.30;99.90;;;;;;5029373;28;20049;-76
2022/08/18 04:18:33;;;;;;;12.52;7.95;;;19.30;99.90;;;;;;5030803;28;20033;-75
2022/08/18 04:21:09;;;;;;;9.63;7.32;;;19.30;99.90;;;;;;5037901;28;20063;-75
2022/08/18 04:23:37;;;;;;;12.57;7.90;;;19.40;99.90;;;;;;5049165;28;20032;-76
2022/08/18 04:26:04;;;;;;;9.82;7.20;;;19.40;99.90;;;;;;5050719;28;20041;-75
2022/08/18 04:28:30;;;;;;;13.15;8.25;;;19.40;99.90;;;;;;5050563;28;20033;-76
2022/08/18 04:30:58;;;;;;;11.85;7.72;;;19.40;99.90;;;;;;5031827;28;20079;-75
2022/08/18 04:33:25;;;;;;;12.73;7.50;;;19.50;99.90;;;;;;5029366;28;20030;-75
2022/08/18 04:35:51;;;;;;;11.30;7.03;;;19.50;99.90;;;;;;5034946;28;20021;-75
2022/08/18 04:38:17;;;;;;;10.95;7.32;;;19.50;99.90;;;;;;5050538;28;20071;-75
2022/08/18 04:40:43;;;;;;;12.13;7.33;;;19.60;99.90;;;;;;5048782;28;20068;-75
2022/08/18 04:43:14;;;;;;;11.00;7.53;;;19.60;99.90;;;;;;5050546;28;20045;-75
2022/08/18 04:45:46;;;;;;;12.73;7.40;;;19.60;99.90;;;;;;5035763;28;20030;-75
2022/08/18 04:48:12;;;;;;;11.20;7.28;;;19.70;99.90;;;;;;5030470;28;20030;-75
2022/08/18 04:50:38;;;;;;;9.30;6.67;;;19.60;99.90;;;;;;5030301;28;20025;-75
2022/08/18 04:55:53;;;;;;;12.18;7.22;;;19.80;99.90;;;;;;5050806;28;20118;-76
2022/08/18 04:58:20;;;;;;;9.52;6.93;;;19.90;99.90;;;;;;5048925;28;20549;-76
2022/08/18 05:00:54;;;;;;;10.60;6.38;;;19.90;99.90;;;;;;5038099;28;20536;-75
2022/08/18 05:03:25;;;;;;;10.88;6.63;;;20.00;99.90;;;;;;5030553;28;20487;-76
2022/08/18 05:05:59;;;;;;;9.52;7.05;;;20.00;99.90;;;;;;5029221;28;20253;-76
2022/08/18 05:08:25;;;;;;;11.43;6.35;;;20.10;99.90;;;;;;5050372;28;20060;-75
2022/08/18 05:10:56;;;;;;;11.60;7.38;;;20.20;99.90;;;;;;5049038;28;20056;-76
2022/08/18 05:13:24;;;;;;;10.45;6.43;;;20.20;99.90;;;;;;5048621;28;20033;-75
2022/08/18 05:16:02;;;;;;;8.43;5.95;;;20.30;99.90;;;;;;5039551;28;20017;-75
2022/08/18 05:18:31;;;;;;;7.90;6.30;;;20.30;99.90;;;;;;5030544;28;20064;-75
2022/08/18 05:20:58;;;;;;;10.95;6.28;;;20.40;99.90;;;;;;5028975;28;20319;-75
2022/08/18 05:23:25;;;;;;;10.73;6.53;;;20.40;99.90;;;;;;5032632;28;20091;-75
2022/08/18 05:25:59;;;;;;;10.00;6.82;;;20.40;99.90;;;;;;5030111;28;20034;-75
2022/08/18 05:28:25;;;;;;;13.85;6.18;;;20.40;99.90;;;;;;5030401;28;20057;-75
2022/08/18 05:30:51;;;;;;;11.00;6.50;;;20.50;99.90;;;;;;5038244;28;20468;-75
2022/08/18 05:33:17;;;;;;;8.30;6.33;;;20.50;99.90;;;;;;5049843;28;20033;-75
2022/08/18 05:35:46;;;;;;;9.57;6.40;;;20.50;99.90;;;;;;5048858;28;20266;-75
2022/08/18 05:38:15;;;;;;;8.48;6.72;;;20.70;99.90;;;;;;5046487;28;20021;-75
2022/08/18 05:40:42;;;;;;;10.88;6.43;;;20.70;99.90;;;;;;5048462;28;20049;-76
2022/08/18 05:43:09;;;;;;;11.93;6.38;;;20.70;99.90;;;;;;5049919;28;20035;-75
2022/08/18 05:45:35;;;;;;;17.38;12.25;;;20.80;99.90;;;;;;5043389;28;20025;-76
2022/08/18 05:48:01;;;;;;;13.80;9.70;;;20.90;99.90;;;;;;5028314;28;20034;-74
2022/08/18 05:50:30;;;;;;;13.30;6.50;;;20.90;99.90;;;;;;5029869;28;20352;-75
2022/08/18 05:52:59;;;;;;;9.55;5.93;;;20.90;99.90;;;;;;5043162;28;20040;-75
2022/08/18 05:58:28;;;;;;;7.55;5.50;;;21.10;99.90;;;;;;5045511;28;20121;-75
2022/08/18 06:01:02;;;;;;;7.85;5.13;;;21.20;99.90;;;;;;5032517;28;20521;-74
2022/08/18 06:03:35;;;;;;;12.27;6.47;;;21.30;99.90;;;;;;5033444;28;20029;-75
2022/08/18 06:06:10;;;;;;;9.27;5.75;;;21.30;99.90;;;;;;5032080;28;20030;-74
2022/08/18 06:08:47;;;;;;;10.98;6.07;;;21.40;99.90;;;;;;5044507;28;20039;-75
2022/08/18 06:11:13;;;;;;;7.90;5.18;;;21.50;99.90;;;;;;5034518;28;20048;-75
2022/08/18 06:13:41;;;;;;;10.38;5.70;;;21.60;99.90;;;;;;5033750;28;20030;-74
2022/08/18 06:16:37;;;;;;;10.70;6.40;;;21.60;99.90;;;;;;5031550;28;20029;-76
2022/08/18 06:19:20;;;;;;;6.97;5.38;;;21.70;99.90;;;;;;5049479;28;20127;-76
2022/08/18 06:22:07;;;;;;;10.00;5.22;;;21.70;99.90;;;;;;5053274;28;20032;-75
2022/08/18 06:24:44;;;;;;;9.50;5.68;;;21.70;99.90;;;;;;5033475;28;20030;-74
2022/08/18 06:27:19;;;;;;;10.93;5.95;;;21.80;99.90;;;;;;5032973;28;20037;-74
2022/08/18 06:29:52;;;;;;;9.02;5.93;;;21.80;99.90;;;;;;5046140;28;20033;-75
2022/08/18 06:32:25;;;;;;;11.10;6.57;;;21.90;99.90;;;;;;5051573;28;20036;-75
2022/08/18 06:35:07;;;;;;;6.88;5.30;;;21.90;99.90;;;;;;5052660;28;20028;-74
2022/08/18 06:38:37;;;;;;;10.00;6.25;;;22.00;99.90;;;;;;5043594;28;20064;-75
2022/08/18 06:40:21;;;;;;;10.38;5.88;;;22.10;99.90;;;;;;5032327;28;20038;-74
2022/08/18 06:42:47;;;;;;;8.07;6.03;;;22.10;99.90;;;;;;5031710;28;20100;-75
2022/08/18 06:45:17;;;;;;;10.83;6.10;;;22.10;99.90;;;;;;5032538;28;20032;-75
2022/08/18 06:48:00;;;;;;;10.25;6.20;;;22.10;99.90;;;;;;5038162;28;20032;-75
2022/08/18 06:50:31;;;;;;;14.40;6.70;;;22.20;99.90;;;;;;5052261;28;20115;-75
2022/08/18 06:53:03;;;;;;;9.20;6.05;;;22.30;99.90;;;;;;5041915;28;20033;-74
2022/08/18 06:55:38;;;;;;;9.73;6.13;;;22.40;99.90;;;;;;5032098;28;20020;-75
2022/08/18 06:58:28;;;;;;;10.18;6.13;;;22.40;99.90;;;;;;5031808;28;20040;-75
2022/08/18 07:01:05;;;;;;;8.18;6.25;;;22.40;99.90;;;;;;5031834;28;20036;-75
2022/08/18 07:03:41;;;;;;;9.57;6.15;;;22.50;99.90;;;;;;5031614;28;20068;-75
2022/08/18 07:06:23;;;;;;;8.27;5.85;;;22.60;99.90;;;;;;5033587;28;20440;-75
2022/08/18 07:08:52;;;;;;;11.40;6.13;;;22.60;99.90;;;;;;5052027;28;20032;-75
2022/08/18 07:11:19;;;;;;;9.65;6.00;;;22.70;99.90;;;;;;5052131;28;20063;-75
2022/08/18 07:13:46;;;;;;;;;;;22.80;99.90;;;;;;5052510;28;20386;-75
2022/08/18 07:16:23;;;;;;;10.18;6.30;;;22.80;99.90;;;;;;5052024;28;20385;-76
2022/08/18 07:18:50;;;;;;;;;;;22.90;99.90;;;;;;5033164;28;20060;-74
2022/08/18 07:21:33;;;;;;;9.73;5.65;;;23.00;99.90;;;;;;5032429;28;19921;-74
2022/08/18 07:24:05;;;;;;;11.88;5.60;;;23.00;99.90;;;;;;5051119;28;20036;-75
2022/08/18 07:26:50;;;;;;;9.07;5.55;;;23.00;99.90;;;;;;5051170;28;20514;-74
2022/08/18 07:29:16;;;;;;;8.82;5.47;;;23.00;99.90;;;;;;5049819;28;20036;-75
2022/08/18 07:31:48;;;;;;;8.67;6.17;;;23.10;99.90;;;;;;5050231;28;20136;-74
2022/08/18 07:34:21;;;;;;;9.68;5.60;;;23.20;99.90;;;;;;5051511;28;20017;-75
2022/08/18 07:36:59;;;;;;;8.88;5.45;;;23.30;99.90;;;;;;5038606;28;20060;-74
2022/08/18 07:39:39;;;;;;;9.63;5.80;;;23.40;99.90;;;;;;5031307;28;20099;-74
2022/08/18 07:42:47;;;;;;;10.35;6.15;;;23.50;99.90;;;;;;5029743;28;20039;-67
2022/08/18 07:45:19;;;;;;;8.57;6.05;;;23.60;99.90;;;;;;5034841;28;20033;-67
2022/08/18 07:47:48;;;;;;;10.43;5.70;;;23.70;99.90;;;;;;5033727;28;20037;-67
2022/08/18 07:50:14;;;;;;;7.05;5.57;;;23.70;99.90;;;;;;5050264;28;20061;-68
2022/08/18 07:52:50;;;;;;;10.27;5.90;;;23.80;99.90;;;;;;5045487;28;20429;-68
2022/08/18 07:55:30;;;;;;;8.25;5.63;;;23.80;99.90;;;;;;5031348;28;20032;-68
2022/08/18 07:58:18;;;;;;;8.10;5.88;;;24.00;99.90;;;;;;5034340;28;20026;-67
2022/08/18 08:00:49;;;;;;;7.78;5.38;;;24.00;99.90;;;;;;5032811;28;20563;-67
2022/08/18 08:03:47;;;;;;;10.00;5.47;;;24.10;99.90;;;;;;5031119;28;20037;-68
2022/08/18 08:06:40;;;;;;;8.13;5.90;;;24.20;99.90;;;;;;5040725;28;20072;-67
2022/08/18 08:09:14;;;;;;;9.75;5.57;;;24.30;99.90;;;;;;5050975;28;20120;-68
2022/08/18 08:11:53;;;;;;;8.65;4.82;;;24.40;99.90;;;;;;5050786;28;20384;-67
2022/08/18 08:14:41;;;;;;;7.07;4.75;;;24.50;99.90;;;;;;5050710;28;20044;-68
2022/08/18 08:17:37;;;;;;;9.88;5.70;;;24.60;99.90;;;;;;5036610;28;20511;-68
2022/08/18 08:20:13;;;;;;;8.05;5.38;;;24.80;99.90;;;;;;5031101;28;20104;-68
2022/08/18 08:22:52;;;;;;;9.07;5.10;;;24.90;99.90;;;;;;5050751;28;20547;-68
2022/08/18 08:25:32;;;;;;;9.80;5.70;;;25.00;99.90;;;;;;5050803;28;20060;-67
2022/08/18 08:28:41;;;;;;;7.95;4.97;;;25.10;99.90;;;;;;5048956;28;20135;-68
2022/08/18 08:31:13;;;;;;;7.97;5.20;;;25.30;99.90;;;;;;5038904;28;20468;-67
2022/08/18 08:33:50;;;;;;;8.45;5.10;;;25.40;99.90;;;;;;5050284;28;20497;-67
2022/08/18 08:36:26;;;;;;;9.25;5.22;;;25.50;99.90;;;;;;5049636;28;20063;-68
2022/08/18 08:39:03;;;;;;;9.88;5.45;;;25.60;99.90;;;;;;5050291;28;20074;-68
2022/08/18 08:41:40;;;;;;;8.10;5.35;;;25.70;99.90;;;;;;5050612;28;20041;-68
2022/08/18 08:44:20;;;;;;;8.32;5.15;;;25.80;99.90;;;;;;5049702;28;20336;-69
2022/08/18 08:46:56;;;;;;;10.65;4.97;;;25.90;99.90;;;;;;5031893;28;20060;-68
2022/08/18 08:49:34;;;;;;;7.63;4.73;;;26.10;99.90;;;;;;5030847;28;20037;-68
2022/08/18 08:52:20;;;;;;;7.85;5.22;;;26.30;99.90;;;;;;5045995;28;20033;-67
2022/08/18 08:55:02;;;;;;;8.88;5.28;;;26.40;99.90;;;;;;5029779;28;20037;-67
2022/08/18 08:57:40;;;;;;;9.45;4.68;;;26.40;99.90;;;;;;5030747;28;20465;-67
2022/08/18 09:00:08;;;;;;;6.18;4.70;;;26.50;99.90;;;;;;5048178;28;20087;-67
2022/08/18 09:03:16;;;;;;;9.20;4.82;;;26.60;99.90;;;;;;5050117;28;20399;-67
2022/08/18 09:06:04;;;;;;;7.97;4.60;;;26.80;99.90;;;;;;5037062;28;20436;-67
2022/08/18 09:08:49;;;;;;;8.27;4.88;;;27.00;99.90;;;;;;5028418;28;20030;-67
2022/08/18 09:11:28;;;;;;;12.70;5.10;;;27.20;99.90;;;;;;5029721;28;20075;-68
2022/08/18 09:14:02;;;;;;;7.97;4.53;;;27.30;99.90;;;;;;5030078;28;20029;-67
2022/08/18 09:16:34;;;;;;;9.45;5.03;;;27.50;99.90;;;;;;5041856;28;20029;-68
2022/08/18 09:19:36;;;;;;;9.02;5.38;;;27.60;99.90;;;;;;5042787;28;20025;-67
2022/08/18 09:22:24;;;;;;;11.23;5.40;;;27.80;99.90;;;;;;5028271;28;20029;-68
2022/08/18 09:24:53;;;;;;;8.57;4.97;;;27.90;99.90;;;;;;5029581;28;20030;-67
2022/08/18 09:27:41;;;;;;;8.27;4.57;;;27.80;99.90;;;;;;5042258;28;20064;-67
2022/08/18 09:30:28;;;;;;;7.75;4.60;;;27.70;99.90;;;;;;5053940;28;20119;-66
2022/08/18 09:33:20;;;;;;;8.90;4.57;;;27.70;99.90;;;;;;5038654;28;20045;-66
2022/08/18 09:36:23;;;;;;;8.57;4.97;;;27.70;99.90;;;;;;5037083;28;20051;-66
2022/08/18 09:41:51;;;;;;;13.23;4.78;;;27.90;99.90;;;;;;5053805;28;20052;-65
2022/08/18 09:44:44;;;;;;;6.80;4.43;;;27.90;99.90;;;;;;5036136;28;20032;-67
2022/08/18 09:47:11;;;;;;;9.68;4.70;;;28.00;99.90;;;;;;5049415;28;20329;-66
2022/08/18 09:49:48;;;;;;;10.00;4.70;;;28.10;99.90;;;;;;5052855;28;20032;-66
2022/08/18 09:52:20;;;;;;;;;;;28.20;99.90;;;;;;5037190;28;20128;-68
2022/08/18 09:54:52;;;;;;;8.93;5.28;;;28.30;99.90;;;;;;5033300;28;19916;-67
2022/08/18 09:57:23;;;;;;;10.70;4.68;;;28.30;99.90;;;;;;5038878;28;20021;-65
2022/08/18 09:59:52;;;;;;;8.95;4.63;;;28.40;99.90;;;;;;5053406;28;20071;-65
2022/08/18 10:02:36;;;;;;;8.70;4.75;;;28.40;99.90;;;;;;5049974;28;20044;-66
2022/08/18 10:05:19;;;;;;;8.70;4.93;;;28.60;99.90;;;;;;5044437;28;20504;-66
2022/08/18 10:07:54;;;;;;;8.05;4.40;;;28.60;99.90;;;;;;5051476;28;20036;-67
2022/08/18 10:10:51;;;;;;;12.02;4.57;;;28.60;99.90;;;;;;5048349;28;20035;-67
2022/08/18 10:13:29;;;;;;;9.52;4.22;;;28.70;99.90;;;;;;5044800;28;20425;-69
2022/08/18 10:16:12;;;;;;;7.40;4.10;;;28.80;99.90;;;;;;5041229;28;20044;-66
2022/08/18 10:19:03;;;;;;;6.40;4.05;;;29.00;99.90;;;;;;5038556;28;20030;-67
2022/08/18 10:21:57;;;;;;;7.82;4.20;;;29.20;99.90;;;;;;5045618;28;20027;-67
2022/08/18 10:24:52;;;;;;;7.40;4.35;;;29.50;99.90;;;;;;5040892;28;20037;-65
2022/08/18 10:27:44;;;;;;;9.68;4.68;;;29.60;99.90;;;;;;5041752;28;20033;-66
2022/08/18 10:30:29;;;;;;;9.65;5.00;;;29.70;99.90;;;;;;5040853;28;20036;-65
2022/08/18 10:32:55;;;;;;;10.98;4.93;;;29.90;99.80;;;;;;5046680;28;20033;-67
2022/08/18 10:35:35;;;;;;;11.82;4.93;;;30.10;99.70;;;;;;5041912;28;20366;-66
2022/08/18 10:38:20;;;;;;;7.07;4.80;;;30.30;99.30;;;;;;5036941;28;20443;-67
2022/08/18 10:41:05;;;;;;;5.97;4.22;;;30.40;99.50;;;;;;5035893;28;20045;-67
2022/08/18 10:43:40;;;;;;;7.53;4.20;;;30.60;98.70;;;;;;5051422;28;20041;-67
2022/08/18 10:46:15;;;;;;;8.02;3.70;;;30.70;98.80;;;;;;5033394;28;20534;-67
2022/08/18 10:48:41;;;;;;;7.93;3.78;;;30.80;97.30;;;;;;5033409;28;20047;-66
2022/08/18 10:51:15;;;;;;;11.50;4.30;;;31.00;97.50;;;;;;5033630;28;20108;-67
2022/08/18 10:53:52;;;;;;;10.38;4.55;;;31.10;96.80;;;;;;5047507;28;20036;-66
2022/08/18 10:56:39;;;;;;;5.57;4.20;;;31.30;96.50;;;;;;5051540;28;20025;-65
2022/08/18 10:59:25;;;;;;;6.93;4.40;;;31.50;96.00;;;;;;5046779;28;20037;-67
2022/08/18 11:02:30;;;;;;;7.65;4.78;;;31.60;96.00;;;;;;5035674;28;20036;-66
2022/08/18 11:04:57;;;;;;;6.13;4.25;;;32.00;95.70;;;;;;5042689;28;20028;-66
2022/08/18 11:07:28;;;;;;;6.20;4.18;;;32.20;95.20;;;;;;5039726;28;20385;-66
2022/08/18 11:09:56;;;;;;;6.13;4.40;;;32.20;95.00;;;;;;5032122;28;20426;-66
2022/08/18 11:12:46;;;;;;;5.88;3.97;;;32.30;94.60;;;;;;5036711;28;20030;-67
2022/08/18 11:15:41;;;;;;;7.38;4.05;;;32.50;94.60;;;;;;5032933;28;20472;-66
2022/08/18 11:18:29;;;;;;;7.45;4.30;;;32.50;94.10;;;;;;5034228;28;20125;-66
2022/08/18 11:21:33;;;;;;;6.97;4.40;;;32.40;94.10;;;;;;5044136;28;20029;-65
2022/08/18 11:24:22;;;;;;;9.85;5.00;;;32.40;94.40;;;;;;5050822;28;20033;-66
2022/08/18 11:26:53;;;;;;;7.53;4.93;;;32.50;93.70;;;;;;5053293;28;20029;-65
2022/08/18 11:29:40;;;;;;;5.93;4.03;;;32.40;93.60;;;;;;5044973;28;20079;-66
2022/08/18 11:32:28;;;;;;;9.37;4.30;;;32.30;94.00;;;;;;5047595;28;20471;-67
2022/08/18 11:34:57;;;;;;;8.38;4.90;;;32.30;93.50;;;;;;5034901;28;20076;-67
2022/08/18 11:37:22;;;;;;;9.85;4.57;;;32.20;93.30;;;;;;5045870;28;20074;-68
2022/08/18 11:39:51;;;;;;;7.88;4.30;;;32.10;93.30;;;;;;5038344;28;20385;-67
2022/08/18 11:42:25;;;;;;;6.32;3.90;;;32.00;93.30;;;;;;5039966;28;20033;-67
2022/08/18 11:45:13;;;;;;;11.48;4.28;;;32.10;93.60;;;;;;5031455;28;20049;-70
2022/08/18 11:48:08;;;;;;;7.22;6.10;;;32.20;93.50;;;;;;5027594;28;20045;-66
2022/08/18 11:51:04;;;;;;;6.35;4.30;;;32.10;93.70;;;;;;5045896;28;20131;-67
2022/08/18 11:53:32;;;;;;;9.57;6.20;;;32.00;93.40;;;;;;5035636;28;20046;-67
2022/08/18 11:56:24;;;;;;;7.55;4.43;;;31.90;93.30;;;;;;5044396;28;20029;-65
2022/08/18 11:59:06;;;;;;;7.80;4.82;;;31.80;93.40;;;;;;5036979;28;20068;-66
2022/08/18 12:01:40;;;;;;;7.15;4.00;;;31.60;93.90;;;;;;5040561;28;20032;-68
2022/08/18 12:04:37;;;;;;;8.00;4.20;;;31.40;93.60;;;;;;5035448;28;20091;-67
2022/08/18 12:07:10;;;;;;;8.32;4.82;;;31.40;94.20;;;;;;5030178;28;20029;-66
2022/08/18 12:09:42;;;;;;;10.73;5.13;;;31.10;94.50;;;;;;5032706;28;20068;-68
2022/08/18 12:12:30;;;;;;;8.27;4.45;;;31.00;94.90;;;;;;5032493;28;20026;-66
2022/08/18 12:15:01;;;;;;;7.22;4.68;;;30.90;94.70;;;;;;5047861;28;20035;-67
2022/08/18 12:17:30;;;;;;;8.48;4.32;;;30.80;94.90;;;;;;5033502;28;20034;-67
2022/08/18 12:20:01;;;;;;;8.23;4.63;;;30.60;94.90;;;;;;5042058;28;20044;-66
2022/08/18 12:22:32;;;;;;;6.65;4.47;;;30.40;95.20;;;;;;5051150;28;20167;-66
2022/08/18 12:24:58;;;;;;;7.55;4.45;;;30.30;95.50;;;;;;5032961;28;20032;-66
2022/08/18 12:27:25;;;;;;;7.07;5.10;;;30.20;95.80;;;;;;5027301;28;20140;-66
2022/08/18 12:29:52;;;;;;;6.50;4.40;;;30.20;95.70;;;;;;5029692;28;20037;-66
2022/08/18 12:32:20;;;;;;;9.40;4.53;;;30.20;95.60;;;;;;5036892;28;20116;-67
2022/08/18 12:34:46;;;;;;;7.38;4.03;;;30.20;95.50;;;;;;5030833;28;20033;-66
2022/08/18 12:37:18;;;;;;;8.10;4.05;;;30.10;95.80;;;;;;5036052;28;20028;-65
2022/08/18 12:39:44;;;;;;;7.72;4.60;;;30.20;95.80;;;;;;5032768;28;20555;-66
2022/08/18 12:42:10;;;;;;;12.02;4.72;;;30.20;95.70;;;;;;5040520;28;20092;-65
2022/08/18 12:44:37;;;;;;;8.55;4.53;;;30.10;96.00;;;;;;5027852;28;20060;-65
2022/08/18 12:47:09;;;;;;;6.85;4.55;;;30.00;95.90;;;;;;5029935;28;20033;-68
2022/08/18 12:49:35;;;;;;;8.95;4.18;;;29.90;96.30;;;;;;5031834;28;20032;-68
2022/08/18 12:52:00;;;;;;;7.93;4.40;;;29.80;96.50;;;;;;5029210;28;20659;-68
2022/08/18 12:54:26;;;;;;;9.75;4.30;;;29.80;96.60;;;;;;5042585;28;20559;-66
2022/08/18 12:56:54;;;;;;;7.27;3.93;;;29.60;96.60;;;;;;5036016;28;20065;-67
2022/08/18 12:59:20;;;;;;;7.30;4.53;;;29.50;97.00;;;;;;5040184;28;20021;-67
2022/08/18 13:01:46;;;;;;;10.00;5.43;;;29.50;96.90;;;;;;5031040;28;20576;-68
2022/08/18 13:04:12;;;;;;;6.90;4.18;;;29.40;97.00;;;;;;5033954;28;20033;-67
2022/08/18 13:06:46;;;;;;;6.75;4.38;;;29.40;97.00;;;;;;5030878;28;20118;-67
2022/08/18 13:09:12;;;;;;;8.68;4.35;;;29.20;97.10;;;;;;5026674;28;20405;-66
2022/08/18 13:11:38;;;;;;;7.57;4.10;;;29.20;97.10;;;;;;5035709;28;20024;-67
2022/08/18 13:14:03;;;;;;;8.95;4.43;;;29.20;97.30;;;;;;5032568;28;20101;-68
2022/08/18 13:16:32;;;;;;;11.10;5.00;;;29.10;97.40;;;;;;5028204;28;20048;-66
2022/08/18 13:18:58;;;;;;;5.75;4.00;;;29.10;97.50;;;;;;5044534;28;20106;-68
2022/08/18 13:21:24;;;;;;;7.20;4.50;;;29.00;97.50;;;;;;5040380;28;20053;-66
2022/08/18 13:23:49;;;;;;;7.32;3.95;;;29.00;97.40;;;;;;5034147;28;20369;-65
2022/08/18 13:26:33;;;;;;;6.78;3.92;;;28.90;97.10;;;;;;5027342;28;20631;-65
2022/08/18 13:28:59;;;;;;;7.07;4.15;;;28.80;97.30;;;;;;5034502;28;20033;-65